sensor_id;sensor_type;location;lat;lon;timestamp;temperature;humidity
27376;DHT22;14844;51.302;6.354;2022-08-04T00:36:29;21.40;99.90
27376;DHT22;14844;51.302;6.354;2022-08-04T00:39:13;20.80;99.90
27376;DHT22;14844;51.302;6.354;2022-08-04T00:54:23;20.50;99.90
27376;DHT22;14844;51.302;6.354;2022-08-04T00:57:17;20.40;99.90
27376;DHT22;14844;51.302;6.354;2022-08-04T01:00:03;20.50;99.90
27376;DHT22;14844;51.302;6.354;2022-08-04T01:02:57;20.50;99.90
27376;DHT22;14844;51.302;6.354;2022-08-04T01:06:05;20.50;99.90
27376;DHT22;14844;51.302;6.354;2022-08-04T01:09:03;20.40;99.90
27376;DHT22;14844;51.302;6.354;2022-08-04T01:18:07;20.30;99.90
27376;DHT22;14844;51.302;6.354;2022-08-04T01:29:45;20.30;99.90
27376;DHT22;14844;51.302;6.354;2022-08-04T01:32:33;20.30;99.90
27376;DHT22;14844;51.302;6.354;2022-08-04T01:35:35;20.40;99.90
27376;DHT22;14844;51.302;6.354;2022-08-04T01:38:21;20.40;99.90
27376;DHT22;14844;51.302;6.354;2022-08-04T01:40:55;20.30;99.90
27376;DHT22;14844;51.302;6.354;2022-08-04T01:43:23;20.30;99.90
27376;DHT22;14844;51.302;6.354;2022-08-04T01:46:00;20.20;99.90
27376;DHT22;14844;51.302;6.354;2022-08-04T01:48:47;20.20;99.90
27376;DHT22;14844;51.302;6.354;2022-08-04T01:51:24;20.20;99.90
27376;DHT22;14844;51.302;6.354;2022-08-04T01:54:08;20.20;99.90
27376;DHT22;14844;51.302;6.354;2022-08-04T01:56:44;20.30;99.90
27376;DHT22;14844;51.302;6.354;2022-08-04T01:59:34;20.30;99.90
27376;DHT22;14844;51.302;6.354;2022-08-04T02:02:05;20.40;99.90
27376;DHT22;14844;51.302;6.354;2022-08-04T02:04:31;20.40;99.90
27376;DHT22;14844;51.302;6.354;2022-08-04T02:10:07;20.50;99.90
27376;DHT22;14844;51.302;6.354;2022-08-04T02:13:14;20.50;99.90
27376;DHT22;14844;51.302;6.354;2022-08-04T02:16:01;20.50;99.90
27376;DHT22;14844;51.302;6.354;2022-08-04T02:19:01;20.50;99.90
27376;DHT22;14844;51.302;6.354;2022-08-04T02:21:33;20.50;99.90
27376;DHT22;14844;51.302;6.354;2022-08-04T02:24:06;20.50;99.90
27376;DHT22;14844;51.302;6.354;2022-08-04T02:26:41;20.50;99.90
27376;DHT22;14844;51.302;6.354;2022-08-04T02:29:39;20.50;99.90
27376;DHT22;14844;51.302;6.354;2022-08-04T02:32:24;20.50;99.90
27376;DHT22;14844;51.302;6.354;2022-08-04T02:35:25;20.50;99.90
27376;DHT22;14844;51.302;6.354;2022-08-04T02:38:29;20.50;99.90
27376;DHT22;14844;51.302;6.354;2022-08-04T02:41:05;20.40;99.90
27376;DHT22;14844;51.302;6.354;2022-08-04T02:43:35;20.40;99.90
27376;DHT22;14844;51.302;6.354;2022-08-04T02:46:10;20.40;99.90
27376;DHT22;14844;51.302;6.354;2022-08-04T02:48:54;20.40;99.90
27376;DHT22;14844;51.302;6.354;2022-08-04T02:51:37;20.30;99.90
27376;DHT22;14844;51.302;6.354;2022-08-04T02:54:36;20.30;99.90
27376;DHT22;14844;51.302;6.354;2022-08-04T02:57:14;20.30;99.90
27376;DHT22;14844;51.302;6.354;2022-08-04T03:00:17;20.30;99.90
27376;DHT22;14844;51.302;6.354;2022-08-04T03:06:38;20.30;99.90
27376;DHT22;14844;51.302;6.354;2022-08-04T03:26:13;20.00;99.90
27376;DHT22;14844;51.302;6.354;2022-08-04T05:36:29;22.70;99.90
27376;DHT22;14844;51.302;6.354;2022-08-04T05:39:02;22.70;99.90
27376;DHT22;14844;51.302;6.354;2022-08-04T05:41:33;22.80;99.90
27376;DHT22;14844;51.302;6.354;2022-08-04T05:44:00;23.00;99.90
27376;DHT22;14844;51.302;6.354;2022-08-04T05:46:30;23.20;99.90
27376;DHT22;14844;51.302;6.354;2022-08-04T05:48:56;23.40;99.90
27376;DHT22;14844;51.302;6.354;2022-08-04T05:51:25;23.70;99.90
27376;DHT22;14844;51.302;6.354;2022-08-04T05:53:53;23.90;99.90
27376;DHT22;14844;51.302;6.354;2022-08-04T05:56:19;24.00;99.90
27376;DHT22;14844;51.302;6.354;2022-08-04T05:58:48;24.10;99.90
27376;DHT22;14844;51.302;6.354;2022-08-04T06:01:16;24.40;99.50
27376;DHT22;14844;51.302;6.354;2022-08-04T06:03:43;24.60;99.50
27376;DHT22;14844;51.302;6.354;2022-08-04T06:06:13;24.70;99.00
27376;DHT22;14844;51.302;6.354;2022-08-04T06:08:39;24.80;98.80
27376;DHT22;14844;51.302;6.354;2022-08-04T06:11:07;24.90;99.00
27376;DHT22;14844;51.302;6.354;2022-08-04T06:13:41;24.90;98.70
27376;DHT22;14844;51.302;6.354;2022-08-04T06:16:10;25.00;97.80
27376;DHT22;14844;51.302;6.354;2022-08-04T06:18:42;25.20;97.20
27376;DHT22;14844;51.302;6.354;2022-08-04T06:21:10;25.40;97.10
27376;DHT22;14844;51.302;6.354;2022-08-04T06:23:38;25.50;96.60
27376;DHT22;14844;51.302;6.354;2022-08-04T06:26:08;25.70;96.50
27376;DHT22;14844;51.302;6.354;2022-08-04T06:28:35;25.80;96.20
27376;DHT22;14844;51.302;6.354;2022-08-04T06:31:02;26.00;95.80
27376;DHT22;14844;51.302;6.354;2022-08-04T06:33:30;26.20;95.50
27376;DHT22;14844;51.302;6.354;2022-08-04T06:36:01;26.30;95.20
27376;DHT22;14844;51.302;6.354;2022-08-04T06:38:29;26.60;94.90
27376;DHT22;14844;51.302;6.354;2022-08-04T06:40:56;26.70;94.60
27376;DHT22;14844;51.302;6.354;2022-08-04T06:43:28;26.90;94.90
27376;DHT22;14844;51.302;6.354;2022-08-04T06:45:55;27.10;94.80
27376;DHT22;14844;51.302;6.354;2022-08-04T06:48:23;27.30;94.80
27376;DHT22;14844;51.302;6.354;2022-08-04T06:50:50;27.50;94.50
27376;DHT22;14844;51.302;6.354;2022-08-04T06:53:16;27.50;93.80
27376;DHT22;14844;51.302;6.354;2022-08-04T06:55:45;27.60;93.90
27376;DHT22;14844;51.302;6.354;2022-08-04T06:58:12;27.70;93.40
27376;DHT22;14844;51.302;6.354;2022-08-04T07:00:40;27.80;93.50
27376;DHT22;14844;51.302;6.354;2022-08-04T07:03:06;28.10;93.20
27376;DHT22;14844;51.302;6.354;2022-08-04T07:05:33;28.20;92.50
27376;DHT22;14844;51.302;6.354;2022-08-04T07:08:00;28.50;92.40
27376;DHT22;14844;51.302;6.354;2022-08-04T07:10:26;28.80;92.10
27376;DHT22;14844;51.302;6.354;2022-08-04T07:12:53;29.10;91.40
27376;DHT22;14844;51.302;6.354;2022-08-04T07:15:19;29.40;91.00
27376;DHT22;14844;51.302;6.354;2022-08-04T07:17:46;29.60;90.40
27376;DHT22;14844;51.302;6.354;2022-08-04T07:20:14;29.50;88.70
27376;DHT22;14844;51.302;6.354;2022-08-04T07:22:40;29.50;88.90
27376;DHT22;14844;51.302;6.354;2022-08-04T07:25:09;29.70;90.00
27376;DHT22;14844;51.302;6.354;2022-08-04T07:27:37;29.80;90.30
27376;DHT22;14844;51.302;6.354;2022-08-04T07:30:05;29.70;90.00
27376;DHT22;14844;51.302;6.354;2022-08-04T07:32:31;29.80;90.00
27376;DHT22;14844;51.302;6.354;2022-08-04T07:34:57;29.90;89.00
27376;DHT22;14844;51.302;6.354;2022-08-04T07:37:23;29.80;89.20
27376;DHT22;14844;51.302;6.354;2022-08-04T07:39:49;30.00;89.60
27376;DHT22;14844;51.302;6.354;2022-08-04T07:42:18;30.20;87.50
27376;DHT22;14844;51.302;6.354;2022-08-04T07:44:47;30.40;87.90
27376;DHT22;14844;51.302;6.354;2022-08-04T07:47:13;30.60;83.60
27376;DHT22;14844;51.302;6.354;2022-08-04T07:49:40;30.70;86.30
27376;DHT22;14844;51.302;6.354;2022-08-04T07:52:07;30.50;82.50
27376;DHT22;14844;51.302;6.354;2022-08-04T07:54:34;30.60;82.20
27376;DHT22;14844;51.302;6.354;2022-08-04T07:57:00;30.70;81.10
27376;DHT22;14844;51.302;6.354;2022-08-04T07:59:25;30.80;81.20
27376;DHT22;14844;51.302;6.354;2022-08-04T08:01:52;31.10;80.80
27376;DHT22;14844;51.302;6.354;2022-08-04T08:04:18;31.20;80.00
27376;DHT22;14844;51.302;6.354;2022-08-04T08:06:44;31.30;79.40
27376;DHT22;14844;51.302;6.354;2022-08-04T08:09:15;31.40;78.00
27376;DHT22;14844;51.302;6.354;2022-08-04T08:11:45;31.50;78.70
27376;DHT22;14844;51.302;6.354;2022-08-04T08:14:34;31.90;77.80
27376;DHT22;14844;51.302;6.354;2022-08-04T08:17:00;32.00;78.00
27376;DHT22;14844;51.302;6.354;2022-08-04T08:19:27;32.00;76.80
27376;DHT22;14844;51.302;6.354;2022-08-04T08:21:53;31.50;77.20
27376;DHT22;14844;51.302;6.354;2022-08-04T08:24:19;31.10;77.00
27376;DHT22;14844;51.302;6.354;2022-08-04T08:26:44;31.10;79.80
27376;DHT22;14844;51.302;6.354;2022-08-04T08:29:11;31.00;81.00
27376;DHT22;14844;51.302;6.354;2022-08-04T08:31:36;31.00;79.60
27376;DHT22;14844;51.302;6.354;2022-08-04T08:34:02;31.00;79.20
27376;DHT22;14844;51.302;6.354;2022-08-04T08:36:35;30.90;80.20
27376;DHT22;14844;51.302;6.354;2022-08-04T08:42:16;31.50;80.20
27376;DHT22;14844;51.302;6.354;2022-08-04T08:48:03;32.00;79.10
27376;DHT22;14844;51.302;6.354;2022-08-04T08:56:24;31.90;77.20
27376;DHT22;14844;51.302;6.354;2022-08-04T08:59:12;31.60;76.70
27376;DHT22;14844;51.302;6.354;2022-08-04T09:07:24;31.50;74.70
27376;DHT22;14844;51.302;6.354;2022-08-04T09:10:11;31.40;74.50
27376;DHT22;14844;51.302;6.354;2022-08-04T09:13:00;31.60;76.90
27376;DHT22;14844;51.302;6.354;2022-08-04T09:15:40;31.90;75.80
27376;DHT22;14844;51.302;6.354;2022-08-04T09:27:25;32.30;76.10
27376;DHT22;14844;51.302;6.354;2022-08-04T09:30:05;32.20;75.70
27376;DHT22;14844;51.302;6.354;2022-08-04T09:35:16;32.10;74.80
27376;DHT22;14844;51.302;6.354;2022-08-04T09:38:21;31.90;75.10
27376;DHT22;14844;51.302;6.354;2022-08-04T09:41:07;31.60;73.70
27376;DHT22;14844;51.302;6.354;2022-08-04T09:46:44;31.40;74.20
27376;DHT22;14844;51.302;6.354;2022-08-04T09:49:28;31.20;74.00
27376;DHT22;14844;51.302;6.354;2022-08-04T09:52:07;31.10;74.80
27376;DHT22;14844;51.302;6.354;2022-08-04T09:55:01;31.50;74.60
27376;DHT22;14844;51.302;6.354;2022-08-04T09:57:52;32.00;73.90
27376;DHT22;14844;51.302;6.354;2022-08-04T10:00:26;32.10;73.60
27376;DHT22;14844;51.302;6.354;2022-08-04T10:03:05;32.30;74.30
27376;DHT22;14844;51.302;6.354;2022-08-04T10:05:55;32.50;74.90
27376;DHT22;14844;51.302;6.354;2022-08-04T10:11:15;32.30;74.50
27376;DHT22;14844;51.302;6.354;2022-08-04T10:13:57;32.40;74.20
27376;DHT22;14844;51.302;6.354;2022-08-04T10:17:11;32.50;73.40
27376;DHT22;14844;51.302;6.354;2022-08-04T10:19:43;32.30;73.00
27376;DHT22;14844;51.302;6.354;2022-08-04T10:22:24;32.60;72.00
27376;DHT22;14844;51.302;6.354;2022-08-04T10:28:04;33.20;71.00
27376;DHT22;14844;51.302;6.354;2022-08-04T10:30:38;33.00;70.00
27376;DHT22;14844;51.302;6.354;2022-08-04T10:33:12;32.90;69.50
27376;DHT22;14844;51.302;6.354;2022-08-04T10:35:49;32.20;69.60
27376;DHT22;14844;51.302;6.354;2022-08-04T10:38:30;32.00;70.10
27376;DHT22;14844;51.302;6.354;2022-08-04T10:46:26;31.60;70.30
27376;DHT22;14844;51.302;6.354;2022-08-04T10:49:03;31.50;71.60
27376;DHT22;14844;51.302;6.354;2022-08-04T10:51:41;31.40;71.80
27376;DHT22;14844;51.302;6.354;2022-08-04T10:54:42;31.30;71.80
27376;DHT22;14844;51.302;6.354;2022-08-04T11:00:23;31.40;72.50
27376;DHT22;14844;51.302;6.354;2022-08-04T11:03:04;31.30;73.60
27376;DHT22;14844;51.302;6.354;2022-08-04T11:06:02;31.30;73.90
27376;DHT22;14844;51.302;6.354;2022-08-04T11:14:07;31.90;75.00
27376;DHT22;14844;51.302;6.354;2022-08-04T11:17:10;31.90;75.10
27376;DHT22;14844;51.302;6.354;2022-08-04T11:22:08;31.10;76.50
27376;DHT22;14844;51.302;6.354;2022-08-04T11:25:12;30.60;76.90
27376;DHT22;14844;51.302;6.354;2022-08-04T11:27:47;30.10;76.50
27376;DHT22;14844;51.302;6.354;2022-08-04T11:30:18;29.80;76.40
27376;DHT22;14844;51.302;6.354;2022-08-04T11:35:49;29.50;80.00
27376;DHT22;14844;51.302;6.354;2022-08-04T11:38:36;29.30;83.30
27376;DHT22;14844;51.302;6.354;2022-08-04T11:41:11;29.20;85.30
27376;DHT22;14844;51.302;6.354;2022-08-04T11:43:53;29.00;85.80
27376;DHT22;14844;51.302;6.354;2022-08-04T11:46:41;29.00;86.90
27376;DHT22;14844;51.302;6.354;2022-08-04T11:49:14;28.70;87.60
27376;DHT22;14844;51.302;6.354;2022-08-04T11:51:41;28.20;89.50
27376;DHT22;14844;51.302;6.354;2022-08-04T11:54:25;28.20;88.70
27376;DHT22;14844;51.302;6.354;2022-08-04T11:57:03;28.40;88.60
27376;DHT22;14844;51.302;6.354;2022-08-04T11:59:43;28.80;89.20
27376;DHT22;14844;51.302;6.354;2022-08-04T12:19:40;29.80;88.00
27376;DHT22;14844;51.302;6.354;2022-08-04T12:22:23;30.20;87.90
27376;DHT22;14844;51.302;6.354;2022-08-04T12:25:10;30.60;86.20
27376;DHT22;14844;51.302;6.354;2022-08-04T12:27:52;31.00;84.40
27376;DHT22;14844;51.302;6.354;2022-08-04T12:30:28;31.10;83.00
27376;DHT22;14844;51.302;6.354;2022-08-04T12:40:00;30.60;82.60
27376;DHT22;14844;51.302;6.354;2022-08-04T12:43:02;30.70;82.90
27376;DHT22;14844;51.302;6.354;2022-08-04T13:05:30;31.80;78.50
27376;DHT22;14844;51.302;6.354;2022-08-04T13:08:01;31.70;78.80
27376;DHT22;14844;51.302;6.354;2022-08-04T13:10:36;31.60;79.50
27376;DHT22;14844;51.302;6.354;2022-08-04T13:13:39;31.30;78.80
27376;DHT22;14844;51.302;6.354;2022-08-04T13:16:31;31.20;79.50
27376;DHT22;14844;51.302;6.354;2022-08-04T13:19:26;31.30;79.20
27376;DHT22;14844;51.302;6.354;2022-08-04T13:21:58;31.50;78.30
27376;DHT22;14844;51.302;6.354;2022-08-04T13:24:28;31.30;76.90
27376;DHT22;14844;51.302;6.354;2022-08-04T13:27:08;30.90;78.40
27376;DHT22;14844;51.302;6.354;2022-08-04T13:32:03;31.00;79.40
27376;DHT22;14844;51.302;6.354;2022-08-04T13:34:54;31.40;79.30
27376;DHT22;14844;51.302;6.354;2022-08-04T13:37:38;31.60;78.30
27376;DHT22;14844;51.302;6.354;2022-08-04T13:40:10;31.90;77.90
27376;DHT22;14844;51.302;6.354;2022-08-04T13:42:50;31.90;77.70
27376;DHT22;14844;51.302;6.354;2022-08-04T13:45:19;31.60;77.00
27376;DHT22;14844;51.302;6.354;2022-08-04T13:47:47;31.50;78.80
27376;DHT22;14844;51.302;6.354;2022-08-04T13:50:25;31.50;78.00
27376;DHT22;14844;51.302;6.354;2022-08-04T13:52:56;31.70;77.90
27376;DHT22;14844;51.302;6.354;2022-08-04T13:55:31;32.00;77.50
27376;DHT22;14844;51.302;6.354;2022-08-04T13:58:18;32.40;76.70
27376;DHT22;14844;51.302;6.354;2022-08-04T14:04:19;32.50;75.70
27376;DHT22;14844;51.302;6.354;2022-08-04T14:07:01;31.90;74.40
27376;DHT22;14844;51.302;6.354;2022-08-04T14:09:38;31.20;76.70
27376;DHT22;14844;51.302;6.354;2022-08-04T14:12:10;30.90;78.30
27376;DHT22;14844;51.302;6.354;2022-08-04T14:14:45;30.70;78.90
27376;DHT22;14844;51.302;6.354;2022-08-04T14:17:16;30.60;78.50
27376;DHT22;14844;51.302;6.354;2022-08-04T14:19:51;30.40;78.70
27376;DHT22;14844;51.302;6.354;2022-08-04T14:24:55;30.10;80.30
27376;DHT22;14844;51.302;6.354;2022-08-04T14:27:22;29.90;78.70
27376;DHT22;14844;51.302;6.354;2022-08-04T14:29:51;29.70;79.10
27376;DHT22;14844;51.302;6.354;2022-08-04T14:32:22;29.50;79.90
27376;DHT22;14844;51.302;6.354;2022-08-04T14:34:48;29.30;80.50
27376;DHT22;14844;51.302;6.354;2022-08-04T14:37:17;29.30;80.00
27376;DHT22;14844;51.302;6.354;2022-08-04T14:39:53;29.30;80.40
27376;DHT22;14844;51.302;6.354;2022-08-04T14:42:43;29.30;81.50
27376;DHT22;14844;51.302;6.354;2022-08-04T14:45:11;29.20;82.20
27376;DHT22;14844;51.302;6.354;2022-08-04T14:47:39;29.30;82.60
27376;DHT22;14844;51.302;6.354;2022-08-04T14:50:07;29.20;84.00
27376;DHT22;14844;51.302;6.354;2022-08-04T14:52:33;29.10;85.30
27376;DHT22;14844;51.302;6.354;2022-08-04T14:55:14;28.80;86.60
27376;DHT22;14844;51.302;6.354;2022-08-04T14:57:43;28.50;88.00
27376;DHT22;14844;51.302;6.354;2022-08-04T15:00:09;28.20;89.40
27376;DHT22;14844;51.302;6.354;2022-08-04T15:02:37;28.00;90.10
27376;DHT22;14844;51.302;6.354;2022-08-04T15:05:05;28.10;90.00
27376;DHT22;14844;51.302;6.354;2022-08-04T15:07:40;28.30;89.50
27376;DHT22;14844;51.302;6.354;2022-08-04T15:10:06;28.70;88.90
27376;DHT22;14844;51.302;6.354;2022-08-04T15:12:32;28.80;89.50
27376;DHT22;14844;51.302;6.354;2022-08-04T15:14:57;28.80;89.70
27376;DHT22;14844;51.302;6.354;2022-08-04T15:17:23;28.80;89.90
27376;DHT22;14844;51.302;6.354;2022-08-04T15:19:49;28.50;90.60
27376;DHT22;14844;51.302;6.354;2022-08-04T15:22:15;28.50;90.90
27376;DHT22;14844;51.302;6.354;2022-08-04T15:24:41;28.50;90.90
27376;DHT22;14844;51.302;6.354;2022-08-04T15:27:08;28.30;91.10
27376;DHT22;14844;51.302;6.354;2022-08-04T15:29:39;28.40;91.10
27376;DHT22;14844;51.302;6.354;2022-08-04T15:32:06;28.50;90.80
27376;DHT22;14844;51.302;6.354;2022-08-04T15:34:46;28.60;91.00
27376;DHT22;14844;51.302;6.354;2022-08-04T15:37:17;28.50;91.00
27376;DHT22;14844;51.302;6.354;2022-08-04T15:39:50;28.50;91.10
27376;DHT22;14844;51.302;6.354;2022-08-04T15:42:29;28.50;91.40
27376;DHT22;14844;51.302;6.354;2022-08-04T15:48:22;28.70;90.80
27376;DHT22;14844;51.302;6.354;2022-08-04T15:51:01;28.70;90.80
27376;DHT22;14844;51.302;6.354;2022-08-04T15:58:52;28.60;90.90
27376;DHT22;14844;51.302;6.354;2022-08-04T16:01:22;28.70;90.70
27376;DHT22;14844;51.302;6.354;2022-08-04T16:03:53;28.50;90.60
27376;DHT22;14844;51.302;6.354;2022-08-04T16:16:33;29.10;88.80
27376;DHT22;14844;51.302;6.354;2022-08-04T16:21:49;30.10;85.90
27376;DHT22;14844;51.302;6.354;2022-08-04T16:26:45;30.50;83.70
27376;DHT22;14844;51.302;6.354;2022-08-04T16:34:54;29.80;85.00
27376;DHT22;14844;51.302;6.354;2022-08-04T16:37:23;29.70;85.60
27376;DHT22;14844;51.302;6.354;2022-08-04T16:43:16;29.90;85.00
27376;DHT22;14844;51.302;6.354;2022-08-04T16:46:26;29.60;85.70
27376;DHT22;14844;51.302;6.354;2022-08-04T16:53:09;29.70;85.80
27376;DHT22;14844;51.302;6.354;2022-08-04T16:58:44;32.60;80.50
27376;DHT22;14844;51.302;6.354;2022-08-04T17:01:59;33.70;78.10
27376;DHT22;14844;51.302;6.354;2022-08-04T17:05:30;34.50;76.00
27376;DHT22;14844;51.302;6.354;2022-08-04T17:08:05;35.20;72.90
27376;DHT22;14844;51.302;6.354;2022-08-04T17:10:48;34.50;73.70
27376;DHT22;14844;51.302;6.354;2022-08-04T17:20:39;36.30;69.70
27376;DHT22;14844;51.302;6.354;2022-08-04T17:29:55;37.00;66.90
27376;DHT22;14844;51.302;6.354;2022-08-04T17:33:16;36.60;65.80
27376;DHT22;14844;51.302;6.354;2022-08-04T17:39:38;34.20;68.70
27376;DHT22;14844;51.302;6.354;2022-08-04T17:42:12;32.10;72.10
27376;DHT22;14844;51.302;6.354;2022-08-04T17:48:25;30.50;75.90
27376;DHT22;14844;51.302;6.354;2022-08-04T18:13:31;28.30;84.10
27376;DHT22;14844;51.302;6.354;2022-08-04T18:26:00;27.30;88.10
27376;DHT22;14844;51.302;6.354;2022-08-04T18:29:09;27.20;89.00
27376;DHT22;14844;51.302;6.354;2022-08-04T18:39:18;26.50;90.60
27376;DHT22;14844;51.302;6.354;2022-08-04T18:43:04;26.40;90.80
27376;DHT22;14844;51.302;6.354;2022-08-04T18:50:19;26.10;91.40
27376;DHT22;14844;51.302;6.354;2022-08-04T19:01:03;25.40;92.80
27376;DHT22;14844;51.302;6.354;2022-08-04T19:03:48;25.10;93.10
27376;DHT22;14844;51.302;6.354;2022-08-04T19:07:08;25.00;93.50
27376;DHT22;14844;51.302;6.354;2022-08-04T19:10:32;24.90;93.90
27376;DHT22;14844;51.302;6.354;2022-08-04T19:17:21;24.70;94.60
27376;DHT22;14844;51.302;6.354;2022-08-04T19:30:44;24.50;95.20
27376;DHT22;14844;51.302;6.354;2022-08-04T19:37:32;24.30;95.70
27376;DHT22;14844;51.302;6.354;2022-08-04T19:43:50;24.20;96.10
27376;DHT22;14844;51.302;6.354;2022-08-04T19:46:47;24.10;96.50
27376;DHT22;14844;51.302;6.354;2022-08-04T19:55:53;23.80;97.30
27376;DHT22;14844;51.302;6.354;2022-08-04T19:58:44;23.60;98.10
27376;DHT22;14844;51.302;6.354;2022-08-04T20:01:57;23.60;98.00
27376;DHT22;14844;51.302;6.354;2022-08-04T20:05:17;23.50;98.10
27376;DHT22;14844;51.302;6.354;2022-08-04T20:14:49;23.40;97.70
27376;DHT22;14844;51.302;6.354;2022-08-04T20:17:21;23.40;97.20
27376;DHT22;14844;51.302;6.354;2022-08-04T20:20:08;23.40;96.40
27376;DHT22;14844;51.302;6.354;2022-08-04T20:23:18;23.50;96.30
27376;DHT22;14844;51.302;6.354;2022-08-04T20:26:11;23.40;94.90
27376;DHT22;14844;51.302;6.354;2022-08-04T20:31:47;23.30;93.70
27376;DHT22;14844;51.302;6.354;2022-08-04T20:34:33;23.20;93.20
27376;DHT22;14844;51.302;6.354;2022-08-04T20:37:11;23.10;93.10
27376;DHT22;14844;51.302;6.354;2022-08-04T20:39:56;23.10;93.10
27376;DHT22;14844;51.302;6.354;2022-08-04T20:43:09;23.00;93.10
27376;DHT22;14844;51.302;6.354;2022-08-04T20:46:06;23.00;92.90
27376;DHT22;14844;51.302;6.354;2022-08-04T20:48:56;23.00;93.10
27376;DHT22;14844;51.302;6.354;2022-08-04T20:51:55;23.00;92.80
27376;DHT22;14844;51.302;6.354;2022-08-04T20:54:31;23.00;92.70
27376;DHT22;14844;51.302;6.354;2022-08-04T20:56:57;23.00;92.60
27376;DHT22;14844;51.302;6.354;2022-08-04T20:59:32;23.00;92.50
27376;DHT22;14844;51.302;6.354;2022-08-04T21:02:17;23.00;92.60
27376;DHT22;14844;51.302;6.354;2022-08-04T21:04:58;22.90;92.50
27376;DHT22;14844;51.302;6.354;2022-08-04T21:15:15;22.90;92.60
27376;DHT22;14844;51.302;6.354;2022-08-04T21:18:15;22.90;92.60
27376;DHT22;14844;51.302;6.354;2022-08-04T21:24:53;22.80;92.80
27376;DHT22;14844;51.302;6.354;2022-08-04T21:31:29;22.80;92.80
27376;DHT22;14844;51.302;6.354;2022-08-04T21:34:02;22.70;93.40
27376;DHT22;14844;51.302;6.354;2022-08-04T21:36:33;22.60;93.70
27376;DHT22;14844;51.302;6.354;2022-08-04T21:39:30;22.40;94.60
27376;DHT22;14844;51.302;6.354;2022-08-04T21:45:19;21.70;98.70
27376;DHT22;14844;51.302;6.354;2022-08-04T21:47:44;20.40;99.90
27376;DHT22;14844;51.302;6.354;2022-08-04T21:50:10;19.70;99.90
27376;DHT22;14844;51.302;6.354;2022-08-04T21:52:36;19.30;99.90
27376;DHT22;14844;51.302;6.354;2022-08-04T21:55:01;19.10;99.90
27376;DHT22;14844;51.302;6.354;2022-08-04T21:57:27;18.90;99.90
27376;DHT22;14844;51.302;6.354;2022-08-04T21:59:52;18.80;99.90
27376;DHT22;14844;51.302;6.354;2022-08-04T22:02:18;18.80;99.90
27376;DHT22;14844;51.302;6.354;2022-08-04T22:04:43;18.70;99.90
27376;DHT22;14844;51.302;6.354;2022-08-04T22:07:09;18.70;99.90
27376;DHT22;14844;51.302;6.354;2022-08-04T22:09:34;18.70;99.90
27376;DHT22;14844;51.302;6.354;2022-08-04T22:12:00;18.70;99.90
27376;DHT22;14844;51.302;6.354;2022-08-04T22:14:26;18.70;99.90
27376;DHT22;14844;51.302;6.354;2022-08-04T22:16:51;18.60;99.90
27376;DHT22;14844;51.302;6.354;2022-08-04T22:19:20;18.60;99.90
27376;DHT22;14844;51.302;6.354;2022-08-04T22:21:48;18.60;99.90
27376;DHT22;14844;51.302;6.354;2022-08-04T22:24:14;18.60;99.90
27376;DHT22;14844;51.302;6.354;2022-08-04T22:26:40;18.60;99.90
27376;DHT22;14844;51.302;6.354;2022-08-04T22:29:06;18.60;99.90
27376;DHT22;14844;51.302;6.354;2022-08-04T22:31:31;18.60;99.90
27376;DHT22;14844;51.302;6.354;2022-08-04T22:33:57;18.50;99.90
27376;DHT22;14844;51.302;6.354;2022-08-04T22:36:23;18.60;99.90
27376;DHT22;14844;51.302;6.354;2022-08-04T22:39:03;18.60;99.90
27376;DHT22;14844;51.302;6.354;2022-08-04T22:41:46;18.50;99.90
27376;DHT22;14844;51.302;6.354;2022-08-04T22:52:01;18.50;99.90
27376;DHT22;14844;51.302;6.354;2022-08-04T22:59:04;18.40;99.90
27376;DHT22;14844;51.302;6.354;2022-08-04T23:05:45;18.30;99.90
27376;DHT22;14844;51.302;6.354;2022-08-04T23:08:23;18.30;99.90
27376;DHT22;14844;51.302;6.354;2022-08-04T23:11:05;18.30;99.90
27376;DHT22;14844;51.302;6.354;2022-08-04T23:13:45;18.20;99.90
27376;DHT22;14844;51.302;6.354;2022-08-04T23:16:24;18.20;99.90
27376;DHT22;14844;51.302;6.354;2022-08-04T23:18:52;18.30;99.90
27376;DHT22;14844;51.302;6.354;2022-08-04T23:21:21;18.30;99.90
27376;DHT22;14844;51.302;6.354;2022-08-04T23:23:47;18.20;99.90
27376;DHT22;14844;51.302;6.354;2022-08-04T23:26:14;18.20;99.90
27376;DHT22;14844;51.302;6.354;2022-08-04T23:28:41;18.20;99.90
27376;DHT22;14844;51.302;6.354;2022-08-04T23:31:09;18.20;99.90
27376;DHT22;14844;51.302;6.354;2022-08-04T23:33:35;18.20;99.90
27376;DHT22;14844;51.302;6.354;2022-08-04T23:36:01;18.10;99.90
27376;DHT22;14844;51.302;6.354;2022-08-04T23:38:27;18.10;99.90
27376;DHT22;14844;51.302;6.354;2022-08-04T23:40:52;18.00;99.90
27376;DHT22;14844;51.302;6.354;2022-08-04T23:43:18;18.00;99.90
27376;DHT22;14844;51.302;6.354;2022-08-04T23:45:45;17.90;99.90
27376;DHT22;14844;51.302;6.354;2022-08-04T23:48:11;17.90;99.90
27376;DHT22;14844;51.302;6.354;2022-08-04T23:50:36;17.80;99.90
27376;DHT22;14844;51.302;6.354;2022-08-04T23:53:02;17.80;99.90
27376;DHT22;14844;51.302;6.354;2022-08-04T23:55:27;17.70;99.90
27376;DHT22;14844;51.302;6.354;2022-08-04T23:57:53;17.70;99.90
